createdAt,value
2018-08-11T00:00:58.178Z,5.03
2018-08-11T00:03:25.534Z,5.10
2018-08-11T00:05:52.813Z,7.60
2018-08-11T00:08:20.258Z,4.33
2018-08-11T00:10:47.887Z,4.57
2018-08-11T00:13:15.514Z,5.13
2018-08-11T00:15:42.851Z,5.57
2018-08-11T00:18:10.268Z,7.93
2018-08-11T00:20:37.617Z,8.07
2018-08-11T00:23:05.612Z,4.37
2018-08-11T00:25:33.170Z,6.10
2018-08-11T00:28:00.457Z,3.53
2018-08-11T00:30:27.964Z,6.70
2018-08-11T00:32:55.284Z,6.00
2018-08-11T00:35:23.544Z,12.20
2018-08-11T00:37:50.966Z,6.50
2018-08-11T00:40:19.455Z,5.60
2018-08-11T00:42:48.044Z,7.07
2018-08-11T00:45:16.019Z,6.97
2018-08-11T00:47:43.469Z,8.63
2018-08-11T00:50:18.738Z,5.57
2018-08-11T00:52:46.112Z,5.60
2018-08-11T00:55:13.865Z,7.17
2018-08-11T00:57:41.789Z,6.53
2018-08-11T01:00:13.548Z,5.37
2018-08-11T01:02:41.449Z,5.33
2018-08-11T01:05:11.409Z,7.47
2018-08-11T01:07:39.578Z,6.13
2018-08-11T01:10:07.706Z,4.77
2018-08-11T01:12:35.049Z,10.27
2018-08-11T01:15:03.059Z,4.63
2018-08-11T01:17:31.121Z,10.27
2018-08-11T01:19:58.482Z,7.03
2018-08-11T01:22:25.802Z,5.67
2018-08-11T01:24:53.335Z,7.57
2018-08-11T01:27:20.654Z,7.63
2018-08-11T01:29:48.678Z,11.13
2018-08-11T01:32:16.090Z,30.20
2018-08-11T01:34:43.398Z,13.23
2018-08-11T01:37:10.743Z,15.23
2018-08-11T01:39:39.529Z,12.73
2018-08-11T01:42:06.837Z,17.33
2018-08-11T01:44:34.115Z,12.47
2018-08-11T01:47:01.384Z,15.63
2018-08-11T01:49:28.657Z,12.50
2018-08-11T01:51:55.920Z,11.47
2018-08-11T01:54:23.217Z,12.07
2018-08-11T01:56:50.526Z,15.23
2018-08-11T01:59:17.987Z,10.00
2018-08-11T02:01:45.346Z,12.17
2018-08-11T02:04:12.707Z,11.37
2018-08-11T02:06:40.128Z,11.07
2018-08-11T02:09:08.588Z,13.40
2018-08-11T02:11:35.860Z,7.90
2018-08-11T02:14:03.107Z,12.50
2018-08-11T02:16:30.436Z,8.43
2018-08-11T02:18:57.706Z,11.97
2018-08-11T02:21:24.980Z,8.60
2018-08-11T02:23:52.326Z,10.33
2018-08-11T02:26:19.675Z,13.07
2018-08-11T02:28:47.005Z,9.50
2018-08-11T02:31:14.583Z,11.13
2018-08-11T02:33:42.136Z,8.80
2018-08-11T02:36:09.499Z,12.17
2018-08-11T02:38:36.833Z,11.33
2018-08-11T02:41:04.137Z,12.90
2018-08-11T02:43:31.472Z,10.80
2018-08-11T02:45:59.429Z,9.87
2018-08-11T02:48:26.784Z,10.43
2018-08-11T02:50:54.763Z,12.30
2018-08-11T02:53:22.029Z,9.83
2018-08-11T02:55:49.465Z,10.17
2018-08-11T02:58:16.789Z,8.90
2018-08-11T03:00:44.655Z,12.07
2018-08-11T03:03:11.965Z,6.50
2018-08-11T03:05:39.317Z,11.60
2018-08-11T03:08:06.609Z,7.20
2018-08-11T03:10:33.870Z,7.30
2018-08-11T03:13:01.169Z,10.17
2018-08-11T03:15:28.483Z,11.20
2018-08-11T03:17:55.762Z,9.97
2018-08-11T03:20:23.044Z,6.87
2018-08-11T03:22:50.350Z,7.50
2018-08-11T03:25:17.707Z,8.47
2018-08-11T03:27:45.083Z,7.90
2018-08-11T03:30:12.479Z,7.80
2018-08-11T03:32:39.766Z,9.70
2018-08-11T03:35:07.109Z,5.87
2018-08-11T03:37:35.181Z,7.03
2018-08-11T03:40:02.470Z,7.87
2018-08-11T03:42:30.442Z,8.03
2018-08-11T03:44:57.752Z,7.23
2018-08-11T03:47:25.131Z,7.47
2018-08-11T03:49:52.529Z,5.60
2018-08-11T03:52:19.849Z,5.40
2018-08-11T03:54:47.260Z,6.83
2018-08-11T03:57:14.609Z,7.10
2018-08-11T03:59:42.284Z,6.47
2018-08-11T04:02:09.713Z,3.77
2018-08-11T04:04:36.985Z,8.87
2018-08-11T04:07:04.401Z,4.77
2018-08-11T04:09:32.297Z,4.60
2018-08-11T04:11:59.639Z,7.03
2018-08-11T04:14:26.904Z,5.43
2018-08-11T04:16:54.300Z,7.10
2018-08-11T04:19:21.608Z,6.23
2018-08-11T04:21:49.460Z,4.97
2018-08-11T04:24:16.829Z,11.27
2018-08-11T04:26:44.066Z,9.50
2018-08-11T04:29:11.417Z,7.03
2018-08-11T04:31:38.674Z,5.10
2018-08-11T04:34:06.317Z,9.90
2018-08-11T04:36:33.642Z,10.60
2018-08-11T04:39:00.887Z,7.30
2018-08-11T04:41:28.200Z,7.13
2018-08-11T04:43:55.511Z,6.93
2018-08-11T04:46:22.838Z,7.67
2018-08-11T04:48:50.162Z,5.50
2018-08-11T04:51:17.408Z,5.87
2018-08-11T04:53:44.712Z,6.93
2018-08-11T04:56:12.218Z,10.17
2018-08-11T04:58:40.268Z,4.43
2018-08-11T05:01:07.618Z,6.30
2018-08-11T05:03:35.116Z,3.67
2018-08-11T05:06:02.401Z,8.47
2018-08-11T05:08:29.677Z,7.67
2018-08-11T05:10:57.020Z,6.73
2018-08-11T05:13:24.308Z,4.30
2018-08-11T05:15:51.732Z,7.00
2018-08-11T05:18:19.062Z,7.20
2018-08-11T05:20:46.407Z,5.53
2018-08-11T05:23:13.720Z,3.80
2018-08-11T05:25:41.042Z,7.50
2018-08-11T13:15:56.030Z,1.53
2018-08-11T13:18:23.458Z,1.90
2018-08-11T13:20:51.028Z,1.67
2018-08-11T13:23:18.399Z,3.50
2018-08-11T13:25:46.064Z,2.20
2018-08-11T13:28:13.572Z,2.33
2018-08-11T13:30:41.672Z,4.03
2018-08-11T13:33:09.132Z,1.43
2018-08-11T13:35:36.587Z,2.23
2018-08-11T13:38:04.177Z,2.83
2018-08-11T13:40:32.232Z,2.37
2018-08-11T13:42:59.683Z,4.33
2018-08-11T13:45:27.320Z,2.40
2018-08-11T13:47:54.614Z,3.00
2018-08-11T13:50:22.858Z,3.93
2018-08-11T13:52:50.833Z,2.03
2018-08-11T13:55:19.373Z,2.77
2018-08-11T13:57:47.067Z,2.47
2018-08-11T14:00:14.390Z,2.37
2018-08-11T14:02:41.821Z,2.07
2018-08-11T14:05:09.378Z,1.50
2018-08-11T14:07:37.538Z,1.87
2018-08-11T14:10:06.973Z,2.17
2018-08-11T14:12:34.344Z,1.57
2018-08-11T14:15:01.676Z,3.33
2018-08-11T14:17:29.882Z,3.00
2018-08-11T14:19:57.244Z,2.63
2018-08-11T14:22:25.428Z,3.73
2018-08-11T14:24:52.898Z,2.43
2018-08-11T14:27:20.270Z,2.23
2018-08-11T14:29:48.250Z,1.50
2018-08-11T14:32:15.702Z,2.30
2018-08-11T14:34:43.052Z,1.87
2018-08-11T14:37:10.421Z,2.20
2018-08-11T14:39:38.962Z,1.83
2018-08-11T14:42:06.681Z,1.70
2018-08-11T14:44:34.300Z,2.53
2018-08-11T14:47:03.109Z,2.03
2018-08-11T14:49:30.804Z,1.83
2018-08-11T14:51:58.127Z,1.60
2018-08-11T14:54:25.544Z,2.90
2018-08-11T14:56:52.942Z,1.70
2018-08-11T14:59:20.398Z,1.67
2018-08-11T15:01:47.971Z,2.43
2018-08-11T15:04:15.556Z,2.80
2018-08-11T15:06:42.931Z,2.07
2018-08-11T15:09:11.263Z,3.30
2018-08-11T15:11:38.972Z,3.53
2018-08-11T15:14:06.507Z,1.83
2018-08-11T15:16:34.215Z,4.37
2018-08-11T15:19:02.068Z,2.00
2018-08-11T15:21:29.412Z,1.50
2018-08-11T15:23:57.990Z,1.87
2018-08-11T15:26:25.523Z,3.27
2018-08-11T15:28:53.127Z,2.83
2018-08-11T15:31:21.137Z,2.30
2018-08-11T15:33:48.577Z,3.00
2018-08-11T15:36:16.104Z,4.57
2018-08-11T15:38:43.652Z,1.97
2018-08-11T15:41:11.438Z,2.27
2018-08-11T15:43:39.111Z,4.90
2018-08-11T15:46:06.834Z,1.73
2018-08-11T15:48:34.243Z,2.40
2018-08-11T15:51:01.838Z,5.30
2018-08-11T15:53:30.022Z,3.77
2018-08-11T15:55:57.662Z,3.20
2018-08-11T15:58:25.242Z,1.90
2018-08-11T16:00:52.643Z,1.67
2018-08-11T16:03:20.102Z,1.93
2018-08-11T16:05:47.669Z,3.23
2018-08-11T16:08:15.344Z,1.67
2018-08-11T16:10:43.535Z,2.33
2018-08-11T16:13:10.991Z,1.53
2018-08-11T16:15:38.381Z,3.13
2018-08-11T16:18:06.002Z,1.83
2018-08-11T16:20:33.571Z,1.80
2018-08-11T16:23:01.557Z,1.73
2018-08-11T16:25:29.431Z,2.07
2018-08-11T16:27:56.869Z,2.70
2018-08-11T16:30:24.299Z,3.20
2018-08-11T16:32:52.043Z,2.07
2018-08-11T16:35:19.426Z,2.30
2018-08-11T16:37:46.783Z,2.30
2018-08-11T16:40:14.266Z,1.67
2018-08-11T16:42:41.646Z,1.47
2018-08-11T16:45:09.794Z,2.33
2018-08-11T16:47:37.533Z,1.57
2018-08-11T16:50:06.066Z,1.70
2018-08-11T16:52:33.567Z,1.23
2018-08-11T16:55:01.023Z,2.00
2018-08-11T16:57:28.705Z,1.90
2018-08-11T16:59:56.106Z,3.80
2018-08-11T17:02:24.057Z,3.50
2018-08-11T17:04:52.195Z,1.90
2018-08-11T17:07:19.973Z,2.70
2018-08-11T17:09:47.345Z,2.70
2018-08-11T17:12:15.137Z,1.97
2018-08-11T17:14:42.820Z,2.03
2018-08-11T17:17:10.304Z,2.30
2018-08-11T17:19:37.717Z,4.00
2018-08-11T17:22:05.570Z,2.20
2018-08-11T17:24:33.094Z,1.17
2018-08-11T17:27:00.596Z,4.00
2018-08-11T17:29:28.272Z,1.77
2018-08-11T17:31:55.963Z,2.20
2018-08-11T17:34:23.794Z,2.63
2018-08-11T17:36:52.393Z,1.87
2018-08-11T17:39:20.044Z,1.77
2018-08-11T17:41:47.391Z,1.77
2018-08-11T17:44:16.536Z,1.37
2018-08-11T17:46:44.129Z,2.37
2018-08-11T17:49:11.758Z,1.90
2018-08-11T17:51:39.179Z,1.70
2018-08-11T17:54:07.673Z,1.00
2018-08-11T17:56:35.019Z,3.40
2018-08-11T17:59:02.702Z,1.07
2018-08-11T18:01:30.030Z,1.10
2018-08-11T18:03:58.304Z,1.70
2018-08-11T18:06:32.839Z,1.90
2018-08-11T18:09:00.561Z,2.00
2018-08-11T18:11:27.905Z,2.60
2018-08-11T18:13:55.321Z,1.30
2018-08-11T18:16:22.747Z,2.37
2018-08-11T18:18:50.549Z,1.00
2018-08-11T18:21:17.902Z,2.47
2018-08-11T18:23:45.481Z,2.23
2018-08-11T18:26:13.407Z,1.40
2018-08-11T18:28:41.066Z,1.97
2018-08-11T18:31:10.364Z,1.13
2018-08-11T18:33:39.579Z,3.23
2018-08-11T18:36:07.318Z,1.80
2018-08-11T18:38:35.014Z,4.67
2018-08-11T18:41:03.341Z,2.70
2018-08-11T18:43:32.618Z,2.47
2018-08-11T18:46:00.066Z,1.50
2018-08-11T18:48:28.770Z,3.43
2018-08-11T18:50:57.259Z,2.23
2018-08-11T18:53:24.905Z,2.77
2018-08-11T18:55:52.630Z,2.20
2018-08-11T18:58:20.038Z,1.77
2018-08-11T19:00:47.695Z,1.73
2018-08-11T19:03:15.387Z,6.47
2018-08-11T19:05:42.904Z,1.57
2018-08-11T19:08:10.873Z,1.30
2018-08-11T19:10:38.321Z,2.13
2018-08-11T19:13:10.108Z,2.23
2018-08-11T19:15:38.094Z,1.77
2018-08-11T19:18:05.959Z,2.67
2018-08-11T19:20:33.222Z,2.10
2018-08-11T19:23:00.891Z,3.67
2018-08-11T19:25:28.224Z,2.67
2018-08-11T19:27:56.285Z,1.53
2018-08-11T19:30:23.952Z,3.57
2018-08-11T19:32:51.368Z,1.80
2018-08-11T19:35:19.377Z,2.80
2018-08-11T19:37:46.619Z,3.43
2018-08-11T19:40:14.914Z,2.53
2018-08-11T19:42:42.595Z,2.10
2018-08-11T19:45:11.091Z,2.70
2018-08-11T19:47:38.650Z,3.17
2018-08-11T19:50:08.617Z,3.23
2018-08-11T19:52:36.427Z,1.87
2018-08-11T19:55:04.294Z,6.07
2018-08-11T19:57:33.889Z,1.80
2018-08-11T20:00:01.202Z,4.70
2018-08-11T20:02:28.558Z,2.03
2018-08-11T20:04:55.858Z,2.80
2018-08-11T20:07:24.044Z,2.93
2018-08-11T20:09:52.370Z,3.50
2018-08-11T20:12:20.844Z,3.17
2018-08-11T20:14:50.392Z,4.33
2018-08-11T20:17:19.198Z,3.37
2018-08-11T20:19:48.349Z,5.70
2018-08-11T20:22:19.624Z,6.73
2018-08-11T20:24:47.625Z,7.97
2018-08-11T20:27:16.239Z,6.53
2018-08-11T20:29:44.161Z,11.87
2018-08-11T20:32:12.763Z,6.70
2018-08-11T20:34:40.751Z,5.93
2018-08-11T20:37:08.612Z,5.83
2018-08-11T20:39:37.733Z,4.43
2018-08-11T20:42:06.585Z,5.27
2018-08-11T20:44:34.221Z,3.90
2018-08-11T20:47:02.930Z,4.83
2018-08-11T20:49:30.884Z,8.13
2018-08-11T20:51:59.405Z,5.97
2018-08-11T20:54:27.245Z,9.07
2018-08-11T20:56:54.850Z,11.63
2018-08-11T20:59:23.900Z,12.30
2018-08-11T21:01:51.218Z,11.30
2018-08-11T21:04:18.525Z,9.80
2018-08-11T21:06:45.847Z,7.10
2018-08-11T21:09:13.498Z,9.43
2018-08-11T21:11:41.057Z,6.27
2018-08-11T21:14:08.970Z,6.53
2018-08-11T21:16:36.253Z,6.27
2018-08-11T21:19:03.616Z,7.53
2018-08-11T21:21:30.969Z,5.80
2018-08-11T21:23:58.864Z,5.37
2018-08-11T21:26:26.173Z,3.77
2018-08-11T21:28:53.696Z,7.80
2018-08-11T21:31:21.323Z,5.03
2018-08-11T21:33:48.781Z,6.37
2018-08-11T21:36:16.287Z,4.33
2018-08-11T21:38:43.705Z,7.83
2018-08-11T21:41:11.064Z,7.83
2018-08-11T21:43:38.306Z,6.30
2018-08-11T21:46:05.617Z,5.40
2018-08-11T21:48:33.177Z,4.40
2018-08-11T21:51:00.514Z,7.47
2018-08-11T21:53:27.920Z,6.73
2018-08-11T21:55:55.950Z,5.00
2018-08-11T21:58:23.318Z,7.77
2018-08-11T22:00:56.035Z,5.87
2018-08-11T22:03:23.354Z,8.80
2018-08-11T22:05:50.665Z,8.90
2018-08-11T22:08:18.095Z,6.57
2018-08-11T22:10:45.447Z,7.13
2018-08-11T22:13:12.734Z,8.03
2018-08-11T22:15:40.357Z,6.53
2018-08-11T22:18:07.714Z,3.77
2018-08-11T22:20:34.966Z,7.93
2018-08-11T22:23:02.225Z,4.90
2018-08-11T22:25:29.513Z,7.40
2018-08-11T22:27:56.777Z,6.27
2018-08-11T22:30:24.147Z,7.23
2018-08-11T22:32:51.567Z,5.20
2018-08-11T22:35:18.844Z,7.87
2018-08-11T22:37:46.103Z,6.53
2018-08-11T22:40:13.371Z,6.03
2018-08-11T22:42:40.660Z,6.23
2018-08-11T22:45:09.545Z,4.57
2018-08-11T22:47:37.646Z,4.90
2018-08-11T22:50:06.648Z,5.30
2018-08-11T22:52:34.900Z,5.67
2018-08-11T22:55:02.274Z,7.70
2018-08-11T22:57:29.576Z,4.23
2018-08-11T22:59:56.812Z,6.00
2018-08-11T23:02:24.066Z,4.77
2018-08-11T23:04:51.884Z,7.37
2018-08-11T23:07:19.150Z,5.17
2018-08-11T23:09:46.409Z,4.60
2018-08-11T23:12:13.673Z,8.47
2018-08-11T23:14:40.953Z,6.83
2018-08-11T23:17:08.290Z,6.93
2018-08-11T23:19:35.551Z,8.00
2018-08-11T23:22:02.781Z,5.80
2018-08-11T23:24:30.838Z,7.27
2018-08-11T23:26:58.234Z,5.83
2018-08-11T23:29:25.505Z,4.90
2018-08-11T23:31:52.864Z,6.27
2018-08-11T23:34:20.810Z,5.10
2018-08-11T23:36:48.199Z,6.40
2018-08-11T23:39:15.466Z,5.27
2018-08-11T23:41:42.962Z,6.67
2018-08-11T23:44:10.809Z,7.27
2018-08-11T23:46:38.190Z,8.40
2018-08-11T23:49:05.567Z,6.10
2018-08-11T23:51:32.890Z,6.13
2018-08-11T23:54:00.111Z,5.20
2018-08-11T23:56:27.416Z,8.40
2018-08-11T23:58:55.300Z,5.90
